Time;durP1;ratioP1;P1;durP2;ratioP2;P2;SDS_P1;SDS_P2;PMS_P1;PMS_P2;Temp;Humidity;BMP_temperature;BMP_pressure;BME280_temperature;BME280_humidity;BME280_pressure;Samples;Min_cycle;Max_cycle;Signal;HPM_P1;HPM_P2
2023/04/15 00:01:28;;;;;;;7.90;6.10;;;;;;;7.62;100.00;-18233.16;4983358;28;20088;-87
2023/04/15 00:03:54;;;;;;;11.70;6.47;;;;;;;7.68;100.00;-18234.81;4985822;28;20093;-87
2023/04/15 00:06:23;;;;;;;10.38;6.10;;;;;;;7.69;100.00;-18235.09;4984065;28;20046;-87
2023/04/15 00:08:51;;;;;;;12.93;6.43;;;;;;;7.63;100.00;-18233.44;4983024;28;20042;-87
2023/04/15 00:11:17;;;;;;;8.82;6.15;;;;;;;7.65;100.00;-18234.00;4984541;28;20571;-87
2023/04/15 00:13:42;;;;;;;12.38;6.38;;;;;;;7.61;100.00;-18233.03;4999536;28;20042;-87
2023/04/15 00:16:09;;;;;;;13.98;6.75;;;;;;;7.52;100.00;-18230.41;4984935;28;20452;-87
2023/04/15 00:18:35;;;;;;;12.10;6.18;;;;;;;7.54;100.00;-18230.97;4984089;28;20034;-87
2023/04/15 00:21:00;;;;;;;13.45;6.90;;;;;;;7.56;100.00;-18231.53;4984500;28;20056;-87
2023/04/15 00:23:26;;;;;;;11.27;6.53;;;;;;;7.50;100.00;-18229.88;4983574;28;20049;-87
2023/04/15 00:25:52;;;;;;;9.30;6.32;;;;;;;7.49;100.00;-18229.72;4985627;28;20042;-87
2023/04/15 00:28:17;;;;;;;11.63;6.97;;;;;;;7.46;100.00;-18229.03;4999228;28;20073;-87
2023/04/15 00:30:43;;;;;;;10.93;7.05;;;;;;;7.39;100.00;-18227.13;4984417;28;20519;-87
2023/04/15 00:33:09;;;;;;;10.00;7.13;;;;;;;7.34;100.00;-18225.72;5000044;28;20134;-87
2023/04/15 00:35:36;;;;;;;12.48;7.38;;;;;;;7.33;100.00;-18225.31;4983240;28;20049;-86
2023/04/15 00:38:02;;;;;;;11.57;7.35;;;;;;;7.36;100.00;-18226.28;5000023;28;20046;-87
2023/04/15 00:40:27;;;;;;;11.38;7.38;;;;;;;7.40;100.00;-18227.38;4984354;28;20092;-87
2023/04/15 00:42:53;;;;;;;10.15;7.05;;;;;;;7.33;100.00;-18225.47;4984156;28;20424;-87
2023/04/15 00:45:18;;;;;;;12.55;7.50;;;;;;;7.28;100.00;-18224.09;5000824;28;20038;-87
2023/04/15 00:47:44;;;;;;;10.93;7.10;;;;;;;7.33;100.00;-18225.47;4982201;28;20049;-87
2023/04/15 00:50:11;;;;;;;9.57;7.30;;;;;;;7.30;100.00;-18224.63;4984589;28;20069;-87
2023/04/15 00:52:37;;;;;;;12.32;7.70;;;;;;;7.28;100.00;-18223.94;4984099;28;20077;-87
2023/04/15 00:55:04;;;;;;;11.75;7.88;;;;;;;7.29;100.00;-18224.34;4983790;28;20054;-87
2023/04/15 00:57:30;;;;;;;10.55;6.90;;;;;;;7.26;100.00;-18223.41;4984594;28;20042;-87
2023/04/15 00:59:56;;;;;;;10.77;7.53;;;;;;;7.22;100.00;-18222.44;4985163;28;20129;-87
2023/04/15 01:02:22;;;;;;;11.98;7.82;;;;;;;7.21;100.00;-18222.28;4984981;28;20038;-87
2023/04/15 01:04:48;;;;;;;10.27;7.20;;;;;;;7.18;100.00;-18221.31;4983136;28;20050;-87
2023/04/15 01:07:14;;;;;;;12.52;8.05;;;;;;;7.16;100.00;-18220.78;4985335;28;20031;-87
2023/04/15 01:09:40;;;;;;;12.07;7.25;;;;;;;7.16;100.00;-18220.78;4982891;28;20057;-87
2023/04/15 01:12:07;;;;;;;12.85;7.93;;;;;;;7.23;100.00;-18222.84;4985326;28;20799;-87
2023/04/15 01:14:33;;;;;;;10.30;7.40;;;;;;;7.29;100.00;-18224.34;4982101;28;20038;-87
2023/04/15 01:16:58;;;;;;;12.40;8.75;;;;;;;7.27;100.00;-18223.81;4999531;28;20166;-87
2023/04/15 01:19:24;;;;;;;11.73;8.20;;;;;;;7.24;100.00;-18222.97;4983920;28;20093;-87
2023/04/15 01:21:49;;;;;;;11.20;7.80;;;;;;;7.23;100.00;-18222.69;4986916;28;20511;-87
2023/04/15 01:24:17;;;;;;;13.88;8.70;;;;;;;7.12;100.00;-18219.66;4986631;28;20069;-87
2023/04/15 01:26:42;;;;;;;13.70;8.70;;;;;;;7.07;100.00;-18218.28;4985607;28;21920;-87
2023/04/15 01:29:08;;;;;;;12.25;8.43;;;;;;;7.09;100.00;-18218.84;5003941;28;20121;-87
2023/04/15 01:31:33;;;;;;;13.65;8.85;;;;;;;7.06;100.00;-18218.16;5001562;28;20122;-87
2023/04/15 01:33:59;;;;;;;13.20;8.43;;;;;;;7.03;100.00;-18217.19;4987080;28;20050;-87
2023/04/15 01:36:24;;;;;;;15.95;9.20;;;;;;;6.99;100.00;-18216.38;4987464;28;20035;-87
2023/04/15 01:38:50;;;;;;;10.98;8.13;;;;;;;6.95;100.00;-18215.13;4987230;28;20476;-87
2023/04/15 01:41:16;;;;;;;14.73;8.80;;;;;;;6.97;100.00;-18215.81;5002050;28;20556;-87
2023/04/15 01:43:41;;;;;;;13.77;8.80;;;;;;;6.95;100.00;-18215.13;5025126;28;20081;-87
2023/04/15 01:46:07;;;;;;;13.52;8.57;;;;;;;6.91;100.00;-18214.16;4999242;28;20165;-87
2023/04/15 01:48:32;;;;;;;13.43;9.45;;;;;;;6.87;100.00;-18213.06;4985484;28;20058;-87
2023/04/15 01:50:58;;;;;;;13.23;8.52;;;;;;;6.82;100.00;-18211.53;4987213;28;20044;-87
2023/04/15 01:53:24;;;;;;;13.02;8.77;;;;;;;6.80;100.00;-18211.13;4988313;28;20573;-87
2023/04/15 01:55:50;;;;;;;15.35;9.27;;;;;;;6.78;100.00;-18210.56;4985918;28;20479;-87
2023/04/15 01:58:16;;;;;;;12.80;8.75;;;;;;;6.76;100.00;-18210.03;4988366;28;20034;-87
2023/04/15 02:00:42;;;;;;;14.05;9.63;;;;;;;6.66;100.00;-18207.41;4986423;28;20046;-87
2023/04/15 02:03:08;;;;;;;13.98;8.65;;;;;;;6.60;100.00;-18205.63;5001993;28;20042;-87
2023/04/15 02:05:34;;;;;;;13.73;8.77;;;;;;;6.57;100.00;-18204.78;4986070;28;20034;-87
2023/04/15 02:07:59;;;;;;;15.43;8.57;;;;;;;6.58;100.00;-18205.06;4972148;28;20038;-87
2023/04/15 02:10:25;;;;;;;14.80;9.52;;;;;;;6.57;100.00;-18204.78;4987966;28;20049;-87
2023/04/15 02:12:50;;;;;;;12.73;8.48;;;;;;;6.56;100.00;-18204.66;4987202;28;20038;-87
2023/04/15 02:15:16;;;;;;;15.05;9.38;;;;;;;6.53;100.00;-18203.81;4987142;28;20319;-87
2023/04/15 02:17:44;;;;;;;13.75;8.75;;;;;;;6.59;100.00;-18205.34;4985822;28;20596;-87
2023/04/15 02:20:10;;;;;;;13.30;8.95;;;;;;;6.58;100.00;-18205.06;4984557;28;20042;-87
2023/04/15 02:22:36;;;;;;;13.45;8.55;;;;;;;6.50;100.00;-18203.00;5001069;28;20050;-87
2023/04/15 02:25:01;;;;;;;13.65;8.70;;;;;;;6.47;100.00;-18202.31;4987722;28;20054;-87
2023/04/15 02:27:27;;;;;;;13.00;9.18;;;;;;;6.44;100.00;-18201.47;4984911;28;20070;-87
2023/04/15 02:29:53;;;;;;;15.35;10.05;;;;;;;6.39;100.00;-18200.09;4985708;28;20046;-87
2023/04/15 02:32:19;;;;;;;17.50;9.80;;;;;;;6.42;100.00;-18200.94;4987200;28;20110;-87
2023/04/15 02:34:44;;;;;;;14.63;9.55;;;;;;;6.33;100.00;-18198.59;4984792;28;20041;-87
2023/04/15 02:37:11;;;;;;;12.40;9.00;;;;;;;6.27;100.00;-18196.78;4986955;28;20046;-87
2023/04/15 02:39:37;;;;;;;15.55;10.18;;;;;;;6.28;100.00;-18197.06;5000008;28;20124;-87
2023/04/15 02:42:04;;;;;;;14.95;9.77;;;;;;;6.26;100.00;-18196.66;4988017;28;20042;-87
2023/04/15 02:44:31;;;;;;;17.08;9.35;;;;;;;6.17;100.00;-18194.03;4984904;28;20061;-87
2023/04/15 02:46:57;;;;;;;14.80;10.40;;;;;;;6.17;100.00;-18194.03;4985707;28;20050;-87
2023/04/15 02:49:23;;;;;;;14.93;10.25;;;;;;;6.10;100.00;-18192.25;4986040;28;20091;-87
2023/04/15 02:51:48;;;;;;;15.68;10.63;;;;;;;6.09;100.00;-18192.09;4984111;28;20054;-87
2023/04/15 02:54:24;;;;;;;14.95;10.85;;;;;;;6.06;100.00;-18191.28;4985095;28;20046;-86
2023/04/15 02:56:51;;;;;;;16.05;11.15;;;;;;;6.10;100.00;-18192.25;4985775;28;20043;-87
2023/04/15 02:59:16;;;;;;;15.75;10.82;;;;;;;6.06;100.00;-18191.13;4984526;28;20138;-87
2023/04/15 03:01:42;;;;;;;16.52;10.77;;;;;;;6.06;100.00;-18191.28;4985015;28;20565;-88
2023/04/15 03:04:07;;;;;;;15.90;11.70;;;;;;;6.09;100.00;-18192.09;4986832;28;20042;-87
2023/04/15 03:06:33;;;;;;;17.38;11.15;;;;;;;6.12;100.00;-18192.78;4985222;28;20042;-87
2023/04/15 03:08:59;;;;;;;15.43;10.48;;;;;;;6.10;100.00;-18192.38;4986643;28;20137;-87
2023/04/15 03:11:26;;;;;;;17.17;10.75;;;;;;;6.08;100.00;-18191.81;4984922;28;20137;-87
2023/04/15 03:13:51;;;;;;;17.25;10.88;;;;;;;6.03;100.00;-18190.31;4986102;28;20728;-87
2023/04/15 03:16:17;;;;;;;16.27;10.55;;;;;;;6.02;100.00;-18190.16;4987145;28;20049;-88
2023/04/15 03:18:42;;;;;;;16.15;10.43;;;;;;;6.00;100.00;-18189.63;4985071;28;20053;-87
2023/04/15 03:21:07;;;;;;;14.32;10.35;;;;;;;5.93;100.00;-18187.69;5000504;28;20049;-87
2023/04/15 03:23:33;;;;;;;15.93;10.82;;;;;;;5.90;100.00;-18186.84;4983877;28;20046;-87
2023/04/15 03:26:01;;;;;;;14.73;10.10;;;;;;;5.87;100.00;-18186.03;4986459;28;20038;-88
2023/04/15 03:28:28;;;;;;;15.25;10.27;;;;;;;5.86;100.00;-18185.75;4983602;28;20509;-87
2023/04/15 03:30:53;;;;;;;16.95;10.73;;;;;;;5.83;100.00;-18184.91;5000056;28;20045;-88
2023/04/15 03:33:19;;;;;;;17.08;10.85;;;;;;;5.80;100.00;-18184.22;4985559;28;20420;-87
2023/04/15 03:35:44;;;;;;;15.25;10.93;;;;;;;5.81;100.00;-18184.38;4984427;28;20084;-87
2023/04/15 03:38:10;;;;;;;19.13;11.25;;;;;;;5.80;100.00;-18184.09;4986529;28;20113;-86
2023/04/15 03:40:35;;;;;;;17.77;11.20;;;;;;;5.77;100.00;-18183.25;4998149;28;20185;-87
2023/04/15 03:43:01;;;;;;;18.05;11.65;;;;;;;5.68;100.00;-18180.78;4984426;28;20742;-87
2023/04/15 03:45:26;;;;;;;16.00;11.07;;;;;;;5.62;100.00;-18179.25;4985950;28;20049;-87
2023/04/15 03:47:51;;;;;;;17.15;11.40;;;;;;;5.60;100.00;-18178.84;4983864;28;20540;-88
2023/04/15 03:50:17;;;;;;;15.00;10.93;;;;;;;5.60;100.00;-18178.84;4984466;28;20438;-87
2023/04/15 03:52:43;;;;;;;17.92;10.88;;;;;;;5.57;100.00;-18177.88;4997677;28;20042;-88
2023/04/15 03:55:09;;;;;;;17.00;11.68;;;;;;;5.51;100.00;-18176.38;4986234;28;20042;-87
2023/04/15 03:57:38;;;;;;;16.27;10.85;;;;;;;5.48;100.00;-18175.53;4983136;28;20104;-87
2023/04/15 04:00:05;;;;;;;20.45;11.63;;;;;;;5.46;100.00;-18175.00;4984863;28;20382;-88
2023/04/15 04:02:30;;;;;;;17.23;11.07;;;;;;;5.43;100.00;-18174.16;4984410;28;20030;-87
2023/04/15 04:04:55;;;;;;;19.77;11.70;;;;;;;5.37;100.00;-18172.63;4985079;28;20509;-88
2023/04/15 04:07:22;;;;;;;19.58;11.98;;;;;;;5.39;100.00;-18173.19;4974415;28;20084;-88
2023/04/15 04:09:48;;;;;;;18.17;11.85;;;;;;;5.39;100.00;-18173.06;4983445;28;20054;-87
2023/04/15 04:12:13;;;;;;;17.13;11.82;;;;;;;5.33;100.00;-18171.41;4981662;28;20074;-88
2023/04/15 04:14:38;;;;;;;17.25;12.23;;;;;;;5.26;100.00;-18169.47;4983883;28;20088;-87
2023/04/15 04:17:04;;;;;;;20.67;13.98;;;;;;;5.24;100.00;-18168.91;4982575;28;20045;-87
2023/04/15 04:19:30;;;;;;;22.38;13.10;;;;;;;5.24;100.00;-18168.91;4982835;28;20517;-87
2023/04/15 04:21:55;;;;;;;22.58;12.82;;;;;;;5.28;100.00;-18170.03;4985734;28;20053;-87
2023/04/15 04:24:20;;;;;;;20.63;13.27;;;;;;;5.32;100.00;-18171.13;4984486;28;20561;-87
2023/04/15 04:26:46;;;;;;;26.17;15.18;;;;;;;5.37;100.00;-18172.63;4982620;28;20485;-87
2023/04/15 04:29:11;;;;;;;27.98;13.80;;;;;;;5.29;100.00;-18170.28;4989209;28;20054;-87
2023/04/15 04:31:37;;;;;;;28.70;15.27;;;;;;;5.21;100.00;-18168.22;4992313;28;20077;-87
2023/04/15 04:34:02;;;;;;;32.45;16.73;;;;;;;5.24;100.00;-18168.91;4971857;28;20278;-87
2023/04/15 04:36:27;;;;;;;34.35;15.77;;;;;;;5.23;100.00;-18168.63;4989558;28;20049;-88
2023/04/15 04:38:53;;;;;;;32.92;16.13;;;;;;;5.24;100.00;-18169.06;4990888;28;20038;-87
2023/04/15 04:41:18;;;;;;;30.73;15.57;;;;;;;5.25;100.00;-18169.19;5006847;28;20061;-87
2023/04/15 04:43:43;;;;;;;31.67;15.02;;;;;;;5.22;100.00;-18168.38;4986623;28;20084;-87
2023/04/15 04:46:09;;;;;;;30.25;14.77;;;;;;;5.24;100.00;-18168.91;4984767;28;20038;-87
2023/04/15 04:48:34;;;;;;;25.00;14.05;;;;;;;5.26;100.00;-18169.59;4983373;28;20046;-88
2023/04/15 04:51:00;;;;;;;24.05;15.25;;;;;;;5.23;100.00;-18168.63;4984400;28;20501;-87
2023/04/15 04:53:26;;;;;;;24.60;14.70;;;;;;;5.24;100.00;-18168.91;4985529;28;20065;-87
2023/04/15 04:55:52;;;;;;;31.17;15.20;;;;;;;5.23;100.00;-18168.78;4987524;28;20420;-87
2023/04/15 04:58:17;;;;;;;26.88;14.25;;;;;;;5.18;100.00;-18167.53;4988654;28;20042;-87
2023/04/15 05:00:42;;;;;;;25.23;14.63;;;;;;;5.09;100.00;-18165.06;5002049;28;20513;-87
2023/04/15 05:03:08;;;;;;;22.55;14.85;;;;;;;5.06;100.00;-18164.22;4989289;28;20038;-87
2023/04/15 05:05:35;;;;;;;23.42;15.25;;;;;;;5.09;100.00;-18165.06;4987934;28;20540;-87
2023/04/15 05:08:01;;;;;;;25.60;14.98;;;;;;;5.12;100.00;-18165.88;4987298;28;20077;-87
2023/04/15 05:10:26;;;;;;;24.98;16.00;;;;;;;5.16;100.00;-18166.84;4986390;28;20536;-87
2023/04/15 05:12:51;;;;;;;26.48;15.57;;;;;;;5.15;100.00;-18166.72;4988488;28;20081;-88
2023/04/15 05:15:17;;;;;;;25.55;15.88;;;;;;;5.18;100.00;-18167.41;4987289;28;20065;-87
2023/04/15 05:17:43;;;;;;;25.60;15.52;;;;;;;5.16;100.00;-18166.97;4969466;28;20104;-87
2023/04/15 05:20:09;;;;;;;22.42;14.88;;;;;;;5.16;100.00;-18166.97;4987794;28;20401;-87
2023/04/15 05:22:35;;;;;;;25.33;16.75;;;;;;;5.22;100.00;-18168.38;4985987;28;20038;-87
2023/04/15 05:25:00;;;;;;;25.77;15.75;;;;;;;5.18;100.00;-18167.53;4987832;28;20041;-86
2023/04/15 05:27:25;;;;;;;25.55;16.10;;;;;;;5.26;100.00;-18169.47;4987859;28;20042;-87
2023/04/15 05:29:51;;;;;;;24.75;16.23;;;;;;;5.32;100.00;-18171.25;4986254;28;20046;-87
2023/04/15 05:32:16;;;;;;;25.98;17.08;;;;;;;5.35;100.00;-18171.94;4988941;28;20750;-87
2023/04/15 05:34:42;;;;;;;26.30;16.67;;;;;;;5.35;100.00;-18171.94;5001947;28;20068;-87
2023/04/15 05:37:07;;;;;;;26.35;16.98;;;;;;;5.38;100.00;-18172.78;4988328;28;20066;-87
2023/04/15 05:39:32;;;;;;;27.85;18.77;;;;;;;5.40;100.00;-18173.34;4985806;28;20409;-87
2023/04/15 05:41:58;;;;;;;25.67;16.65;;;;;;;5.41;100.00;-18173.63;4987931;28;20401;-87
2023/04/15 05:44:24;;;;;;;31.38;18.38;;;;;;;5.45;100.00;-18174.56;4986886;28;20042;-87
2023/04/15 05:46:50;;;;;;;28.55;18.38;;;;;;;5.51;100.00;-18176.38;4985836;28;20129;-87
2023/04/15 05:49:15;;;;;;;32.90;19.67;;;;;;;5.55;100.00;-18177.47;4988141;28;20054;-87
2023/04/15 05:51:41;;;;;;;34.20;20.05;;;;;;;5.61;100.00;-18179.13;4985426;28;20046;-87
2023/04/15 05:54:06;;;;;;;35.20;22.67;;;;;;;5.69;100.00;-18181.19;4986098;28;20049;-87
2023/04/15 05:56:31;;;;;;;28.67;18.25;;;;;;;5.71;100.00;-18181.75;4986586;28;20125;-87
2023/04/15 05:58:57;;;;;;;27.10;18.13;;;;;;;5.73;100.00;-18182.16;4988385;28;20100;-87
2023/04/15 06:01:22;;;;;;;26.00;16.83;;;;;;;5.77;100.00;-18183.25;5002104;28;20077;-87
2023/04/15 06:03:48;;;;;;;26.42;16.77;;;;;;;5.78;100.00;-18183.53;4986659;28;20060;-87
2023/04/15 06:06:14;;;;;;;25.65;17.77;;;;;;;5.80;100.00;-18184.09;4986133;28;20057;-87
2023/04/15 06:08:40;;;;;;;26.70;18.00;;;;;;;5.84;100.00;-18185.19;4986345;28;20066;-87
2023/04/15 06:11:05;;;;;;;27.58;17.73;;;;;;;5.88;100.00;-18186.44;4988418;28;20078;-87
2023/04/15 06:13:30;;;;;;;25.75;16.92;;;;;;;5.95;100.00;-18188.09;5001103;28;20092;-88
2023/04/15 06:15:56;;;;;;;27.63;17.00;;;;;;;6.02;100.00;-18190.03;4986259;28;20050;-87
2023/04/15 06:18:21;;;;;;;26.65;16.58;;;;;;;6.07;100.00;-18191.56;5001250;28;20349;-87
2023/04/15 06:20:46;;;;;;;26.45;18.08;;;;;;;6.15;100.00;-18193.63;4984665;28;20357;-87
2023/04/15 06:23:12;;;;;;;30.00;17.50;;;;;;;6.21;100.00;-18195.13;4988179;28;20085;-87
2023/04/15 06:25:37;;;;;;;28.63;17.15;;;;;;;6.27;100.00;-18196.94;4982862;28;20050;-87
2023/04/15 06:28:03;;;;;;;27.60;17.92;;;;;;;6.37;100.00;-18199.41;4986668;28;20076;-87
2023/04/15 06:30:28;;;;;;;27.85;18.15;;;;;;;6.46;100.00;-18202.03;4986375;28;20050;-87
2023/04/15 06:32:54;;;;;;;33.03;19.65;;;;;;;6.48;100.00;-18202.59;4985447;28;20057;-88
2023/04/15 06:35:20;;;;;;;30.02;17.92;;;;;;;6.57;100.00;-18204.78;5002481;28;20042;-87
2023/04/15 06:37:45;;;;;;;34.38;19.25;;;;;;;6.65;100.00;-18207.13;4982777;28;20050;-87
2023/04/15 06:40:11;;;;;;;26.15;17.67;;;;;;;6.69;100.00;-18208.22;4985921;28;20088;-87
2023/04/15 06:42:37;;;;;;;31.58;19.38;;;;;;;6.78;100.00;-18210.72;5001037;28;20049;-87
2023/04/15 06:45:02;;;;;;;30.95;18.08;;;;;;;6.84;100.00;-18212.22;4986662;28;20049;-87
2023/04/15 06:47:28;;;;;;;26.70;17.98;;;;;;;6.88;100.00;-18213.19;4984868;28;20042;-87
2023/04/15 06:49:53;;;;;;;28.77;18.55;;;;;;;6.89;100.00;-18213.47;4985372;28;20054;-87
2023/04/15 06:52:19;;;;;;;28.30;17.50;;;;;;;6.86;100.00;-18212.78;4986266;28;20532;-87
2023/04/15 06:54:44;;;;;;;29.10;16.92;;;;;;;6.90;100.00;-18213.88;4985291;28;20046;-86
2023/04/15 06:57:10;;;;;;;26.55;17.30;;;;;;;6.94;100.00;-18215.00;4987847;28;20034;-87
2023/04/15 06:59:35;;;;;;;28.50;17.83;;;;;;;7.01;100.00;-18216.78;4985084;28;20038;-87
2023/04/15 07:02:01;;;;;;;31.92;18.30;;;;;;;7.08;100.00;-18218.72;4985911;28;20134;-87
2023/04/15 07:04:26;;;;;;;24.35;15.82;;;;;;;7.08;100.00;-18218.56;4985334;28;20038;-87
2023/04/15 07:06:54;;;;;;;25.05;16.02;;;;;;;7.09;100.00;-18218.84;4985534;28;20050;-87
2023/04/15 07:09:20;;;;;;;24.77;16.17;;;;;;;7.15;100.00;-18220.50;4985711;28;20417;-87
2023/04/15 07:11:45;;;;;;;23.52;14.55;;;;;;;7.24;100.00;-18222.97;4983944;28;20050;-87
2023/04/15 07:14:10;;;;;;;22.02;13.52;;;;;;;7.29;100.00;-18224.22;4986481;28;20051;-87
2023/04/15 07:16:36;;;;;;;23.80;15.35;;;;;;;7.37;100.00;-18226.56;4984160;28;20100;-87
2023/04/15 07:19:01;;;;;;;21.73;14.75;;;;;;;7.45;100.00;-18228.63;4987407;28;20137;-88
2023/04/15 07:21:26;;;;;;;22.15;14.05;;;;;;;7.56;100.00;-18231.53;4986808;28;20077;-87
2023/04/15 07:23:52;;;;;;;19.48;13.70;;;;;;;7.66;100.00;-18234.41;4986248;28;20073;-87
2023/04/15 07:26:17;;;;;;;21.98;13.10;;;;;;;7.71;100.00;-18235.50;4986259;28;20042;-87
2023/04/15 07:28:45;;;;;;;21.00;13.68;;;;;;;7.80;100.00;-18238.13;4984325;28;20058;-87
2023/04/15 07:31:10;;;;;;;18.73;12.43;;;;;;;7.82;100.00;-18238.69;4986994;28;20049;-88
2023/04/15 07:33:36;;;;;;;18.38;12.18;;;;;;;7.91;100.00;-18241.16;4985735;28;20038;-87
2023/04/15 07:36:01;;;;;;;19.83;12.85;;;;;;;7.93;100.00;-18241.44;4986277;28;20298;-87
2023/04/15 07:38:27;;;;;;;19.23;13.52;;;;;;;7.94;100.00;-18241.84;4985918;28;20046;-87
2023/04/15 07:40:53;;;;;;;21.05;13.55;;;;;;;7.97;100.00;-18242.53;4984222;28;20125;-87
2023/04/15 07:43:20;;;;;;;23.77;14.10;;;;;;;7.98;100.00;-18242.81;4985251;28;20092;-87
2023/04/15 07:45:45;;;;;;;19.42;13.27;;;;;;;8.07;100.00;-18245.28;4984616;28;20416;-87
2023/04/15 07:48:10;;;;;;;20.92;14.00;;;;;;;8.08;100.00;-18245.56;4986532;28;20045;-87
2023/04/15 07:50:36;;;;;;;21.10;13.60;;;;;;;8.13;100.00;-18246.94;4984719;28;20069;-87
2023/04/15 07:53:01;;;;;;;21.48;14.63;;;;;;;8.03;100.00;-18244.31;4985519;28;20456;-87
2023/04/15 07:55:27;;;;;;;24.05;15.18;;;;;;;8.11;100.00;-18246.53;4984070;28;20042;-87
2023/04/15 07:57:52;;;;;;;22.40;13.68;;;;;;;8.24;100.00;-18249.84;4985854;28;20053;-87
2023/04/15 08:00:17;;;;;;;21.42;13.20;;;;;;;8.23;100.00;-18249.69;4986912;28;20104;-87
2023/04/15 08:02:43;;;;;;;19.85;13.65;;;;;;;8.26;100.00;-18250.38;4984672;28;21448;-88
2023/04/15 08:05:09;;;;;;;21.80;13.02;;;;;;;8.26;100.00;-18250.53;4986612;28;20176;-87
2023/04/15 08:07:36;;;;;;;18.13;12.80;;;;;;;8.35;100.00;-18252.88;4984280;28;20046;-88
2023/04/15 08:10:01;;;;;;;18.95;12.43;;;;;;;8.39;100.00;-18253.84;4984045;28;20069;-88
2023/04/15 08:12:27;;;;;;;17.45;12.05;;;;;;;8.48;100.00;-18256.31;4985282;28;20039;-87
2023/04/15 08:14:53;;;;;;;17.92;11.70;;;;;;;8.55;100.00;-18258.25;4984770;28;20101;-87
2023/04/15 08:17:19;;;;;;;16.35;10.65;;;;;;;8.56;100.00;-18258.50;4986442;28;20497;-86
2023/04/15 08:19:44;;;;;;;16.80;10.65;;;;;;;8.68;100.00;-18261.81;4982453;28;20606;-87
2023/04/15 08:22:11;;;;;;;15.05;9.60;;;;;;;8.71;100.00;-18262.63;4985361;28;20049;-87
2023/04/15 08:24:36;;;;;;;14.85;10.50;;;;;;;8.82;100.00;-18265.66;4986080;28;20057;-87
2023/04/15 08:27:03;;;;;;;15.68;10.30;;;;;;;8.89;100.00;-18267.47;5004197;28;20051;-87
2023/04/15 08:29:28;;;;;;;16.27;10.00;;;;;;;8.95;100.00;-18269.09;4988291;28;20038;-87
2023/04/15 08:31:54;;;;;;;14.48;10.15;;;;;;;9.08;100.00;-18272.53;4990689;28;20049;-87
2023/04/15 08:34:19;;;;;;;16.52;9.93;;;;;;;9.04;100.00;-18271.44;4992338;28;20474;-87
2023/04/15 08:36:45;;;;;;;13.57;9.60;;;;;;;9.06;100.00;-18271.84;4991165;28;20046;-87
2023/04/15 08:39:10;;;;;;;17.60;11.18;;;;;;;9.08;100.00;-18272.53;4989942;28;20169;-87
2023/04/15 08:41:47;;;;;;;16.38;10.93;;;;;;;9.09;100.00;-18272.81;4992839;28;20042;-87
2023/04/15 08:44:13;;;;;;;18.00;11.30;;;;;;;9.13;100.00;-18273.78;4985554;28;20045;-87
2023/04/15 08:46:41;;;;;;;15.73;10.98;;;;;;;9.03;100.00;-18271.16;4988250;28;21134;-87
2023/04/15 08:49:11;;;;;;;15.07;11.25;;;;;;;8.98;100.00;-18269.81;4999511;28;20073;-87
2023/04/15 08:51:37;;;;;;;18.92;11.32;;;;;;;8.98;100.00;-18269.94;4988539;28;20100;-87
2023/04/15 08:54:03;;;;;;;16.88;11.13;;;;;;;8.99;100.00;-18270.06;4988413;28;20121;-87
2023/04/15 08:56:31;;;;;;;14.85;10.40;;;;;;;8.95;100.00;-18268.97;4988299;28;20209;-87
2023/04/15 08:58:57;;;;;;;16.52;10.25;;;;;;;9.01;100.00;-18270.63;4989122;28;20054;-87
2023/04/15 09:01:23;;;;;;;16.23;10.68;;;;;;;9.06;100.00;-18272.00;4986634;28;20409;-87
2023/04/15 09:03:53;;;;;;;15.55;10.48;;;;;;;9.24;100.00;-18276.94;4985256;28;20050;-88
2023/04/15 09:06:20;;;;;;;14.95;10.10;;;;;;;9.27;100.00;-18277.63;4991506;28;20491;-87
2023/04/15 09:08:45;;;;;;;16.10;10.35;;;;;;;9.36;100.00;-18279.97;4987561;28;20501;-87
2023/04/15 09:11:11;;;;;;;15.38;10.38;;;;;;;9.53;100.00;-18284.66;4991349;28;20053;-87
2023/04/15 09:13:37;;;;;;;14.23;10.05;;;;;;;9.63;100.00;-18287.25;4989574;28;20035;-86
2023/04/15 09:16:04;;;;;;;13.73;9.43;;;;;;;9.71;100.00;-18289.47;4991133;28;20125;-87
2023/04/15 09:18:31;;;;;;;14.77;10.20;;;;;;;9.61;100.00;-18286.84;4998743;28;20415;-87
2023/04/15 09:21:10;;;;;;;12.65;8.98;;;;;;;9.68;100.00;-18288.78;4985043;28;20123;-87
2023/04/15 09:23:36;;;;;;;14.88;9.30;;;;;;;9.71;100.00;-18289.47;4995949;28;20039;-87
2023/04/15 09:26:03;;;;;;;13.20;8.95;;;;;;;9.73;100.00;-18290.00;4997148;28;20128;-87
2023/04/15 09:28:28;;;;;;;13.35;9.40;;;;;;;9.72;100.00;-18289.75;4991994;28;20050;-87
2023/04/15 09:30:58;;;;;;;12.43;8.35;;;;;;;9.72;100.00;-18289.75;4991529;28;20050;-87
2023/04/15 09:33:25;;;;;;;12.57;8.77;;;;;;;9.81;100.00;-18292.06;5006578;28;20448;-87
2023/04/15 09:35:58;;;;;;;12.57;8.30;;;;;;;9.87;100.00;-18293.88;4990937;28;20045;-87
2023/04/15 09:38:23;;;;;;;10.70;7.60;;;;;;;9.89;100.00;-18294.41;4991522;28;20149;-87
2023/04/15 09:40:49;;;;;;;11.60;7.85;;;;;;;9.83;100.00;-18292.63;5003757;28;20121;-87
2023/04/15 09:43:16;;;;;;;11.38;8.05;;;;;;;9.76;100.00;-18290.69;4990540;28;20034;-87
2023/04/15 09:45:49;;;;;;;9.57;6.57;;;;;;;9.77;100.00;-18290.97;4990566;28;20042;-87
2023/04/15 09:48:20;;;;;;;11.18;7.05;;;;;;;9.83;100.00;-18292.63;4990906;28;20441;-87
2023/04/15 09:50:47;;;;;;;11.98;7.13;;;;;;;9.87;100.00;-18293.72;4995730;28;20078;-87
2023/04/15 09:53:19;;;;;;;10.23;7.18;;;;;;;9.90;100.00;-18294.56;5000383;28;20114;-87
2023/04/15 09:55:45;;;;;;;10.52;6.80;;;;;;;9.97;100.00;-18296.34;4997368;28;20038;-87
2023/04/15 09:58:18;;;;;;;12.05;6.70;;;;;;;9.97;100.00;-18296.34;4996988;28;20046;-87
2023/04/15 10:00:46;;;;;;;10.77;7.00;;;;;;;9.96;100.00;-18296.19;5006391;28;20048;-87
2023/04/15 10:03:13;;;;;;;9.85;5.65;;;;;;;10.01;100.00;-18297.56;5013942;28;20124;-87
2023/04/15 10:05:39;;;;;;;10.25;7.22;;;;;;;10.11;100.00;-18300.31;5027817;28;20105;-87
2023/04/15 10:08:04;;;;;;;10.20;6.30;;;;;;;10.17;100.00;-18301.84;4996616;28;20449;-87
2023/04/15 10:10:32;;;;;;;8.23;6.13;;;;;;;10.15;100.00;-18301.41;4993223;28;20038;-87
2023/04/15 10:12:57;;;;;;;8.18;6.00;;;;;;;10.11;100.00;-18300.31;5005472;28;20045;-87
2023/04/15 10:15:24;;;;;;;10.30;5.63;;;;;;;10.09;100.00;-18299.78;4990548;28;20034;-87
2023/04/15 10:17:50;;;;;;;8.02;5.68;;;;;;;10.09;100.00;-18299.63;4990256;28;20049;-87
2023/04/15 10:20:18;;;;;;;7.07;5.10;;;;;;;10.21;100.00;-18302.78;4990795;28;20398;-87
2023/04/15 10:22:44;;;;;;;7.07;5.05;;;;;;;10.22;100.00;-18303.22;4989775;28;20497;-87
2023/04/15 10:25:10;;;;;;;7.10;4.60;;;;;;;10.25;100.00;-18303.91;4989122;28;20102;-87
2023/04/15 10:27:38;;;;;;;6.85;4.65;;;;;;;10.22;100.00;-18303.06;5005047;28;20561;-87
2023/04/15 10:30:04;;;;;;;7.30;4.63;;;;;;;10.13;100.00;-18300.75;4990072;28;20325;-87
2023/04/15 10:32:30;;;;;;;10.23;7.20;;;;;;;10.22;100.00;-18303.22;4990154;28;20516;-87
2023/04/15 10:34:56;;;;;;;7.43;5.28;;;;;;;10.17;100.00;-18301.97;5004999;28;20038;-87
2023/04/15 10:37:36;;;;;;;6.82;4.68;;;;;;;10.14;100.00;-18301.16;5005194;28;20062;-87
2023/04/15 10:40:30;;;;;;;16.52;9.68;;;;;;;10.21;100.00;-18302.94;4988481;28;20497;-87
2023/04/15 10:42:56;;;;;;;9.40;5.25;;;;;;;10.21;100.00;-18302.78;4989866;28;20050;-86
2023/04/15 10:45:25;;;;;;;71.60;30.55;;;;;;;10.21;100.00;-18302.78;4987956;28;20038;-87
2023/04/15 10:47:54;;;;;;;22.63;10.52;;;;;;;10.29;100.00;-18305.00;5000773;28;20402;-87
2023/04/15 10:50:20;;;;;;;41.00;16.58;;;;;;;10.35;100.00;-18306.66;4986365;28;20406;-87
2023/04/15 10:52:45;;;;;;;24.63;11.38;;;;;;;10.37;100.00;-18307.34;4984666;28;20049;-87
2023/04/15 10:55:18;;;;;;;16.98;8.82;;;;;;;10.37;100.00;-18307.19;4985067;28;20061;-87
2023/04/15 10:57:44;;;;;;;8.35;5.32;;;;;;;10.42;100.00;-18308.44;5000778;28;20054;-86
2023/04/15 11:00:15;;;;;;;16.02;8.10;;;;;;;10.37;100.00;-18307.19;5004230;28;20089;-87
2023/04/15 11:02:43;;;;;;;11.45;5.80;;;;;;;10.33;100.00;-18306.25;4986262;28;20519;-87
2023/04/15 11:05:10;;;;;;;9.38;5.35;;;;;;;10.31;100.00;-18305.56;4987874;28;20050;-87
2023/04/15 11:07:57;;;;;;;9.88;6.20;;;;;;;10.32;100.00;-18305.97;4985163;28;20042;-88